createdAt,value
2022-08-26T00:01:44.025Z,6.07
2022-08-26T00:04:12.278Z,5.25
2022-08-26T00:06:42.282Z,5.15
2022-08-26T00:09:09.976Z,5.13
2022-08-26T00:11:37.235Z,5.30
2022-08-26T00:14:03.794Z,5.40
2022-08-26T00:16:31.774Z,5.90
2022-08-26T00:18:58.777Z,4.68
2022-08-26T00:21:25.351Z,4.85
2022-08-26T00:23:51.808Z,4.60
2022-08-26T00:26:18.640Z,4.35
2022-08-26T00:28:47.357Z,4.90
2022-08-26T00:31:14.391Z,5.03
2022-08-26T00:33:41.717Z,7.30
2022-08-26T00:36:09.136Z,6.28
2022-08-26T00:38:46.757Z,4.80
2022-08-26T00:41:13.476Z,5.07
2022-08-26T00:43:47.759Z,5.60
2022-08-26T00:46:21.609Z,4.68
2022-08-26T00:48:53.654Z,4.85
2022-08-26T00:51:24.758Z,4.90
2022-08-26T00:54:06.581Z,4.68
2022-08-26T00:56:42.221Z,5.57
2022-08-26T00:59:11.990Z,5.78
2022-08-26T01:01:41.391Z,5.90
2022-08-26T01:04:09.485Z,5.63
2022-08-26T01:06:36.537Z,5.20
2022-08-26T01:09:04.142Z,4.68
2022-08-26T01:11:32.103Z,4.55
2022-08-26T01:14:02.741Z,5.00
2022-08-26T01:16:30.106Z,4.82
2022-08-26T01:19:03.596Z,5.78
2022-08-26T01:21:47.242Z,5.18
2022-08-26T01:24:14.780Z,5.43
2022-08-26T01:26:44.618Z,6.68
2022-08-26T01:29:14.995Z,6.68
2022-08-26T01:31:56.469Z,5.35
2022-08-26T01:34:30.239Z,5.43
2022-08-26T01:37:14.172Z,5.40
2022-08-26T01:39:46.759Z,5.60
2022-08-26T01:42:15.421Z,5.47
2022-08-26T01:44:55.839Z,5.32
2022-08-26T01:47:25.832Z,5.80
2022-08-26T01:49:55.822Z,5.18
2022-08-26T01:52:27.587Z,5.53
2022-08-26T01:54:57.246Z,5.70
2022-08-26T01:57:25.240Z,5.55
2022-08-26T01:59:55.286Z,4.85
2022-08-26T02:02:22.879Z,6.40
2022-08-26T02:04:58.128Z,6.03
2022-08-26T02:07:26.825Z,6.47
2022-08-26T02:09:54.686Z,4.97
2022-08-26T02:12:21.614Z,5.65
2022-08-26T02:14:55.300Z,5.70
2022-08-26T02:17:28.489Z,7.07
2022-08-26T02:19:56.148Z,6.03
2022-08-26T02:22:24.611Z,7.35
2022-08-26T02:25:00.707Z,6.35
2022-08-26T02:27:32.933Z,6.50
2022-08-26T02:30:08.448Z,5.20
2022-08-26T02:32:35.011Z,6.15
2022-08-26T02:35:01.844Z,6.85
2022-08-26T02:37:31.233Z,6.10
2022-08-26T02:39:58.253Z,6.63
2022-08-26T02:42:24.750Z,6.50
2022-08-26T02:44:51.691Z,5.65
2022-08-26T02:47:18.172Z,5.38
2022-08-26T02:49:47.325Z,5.18
2022-08-26T02:52:14.732Z,6.43
2022-08-26T02:54:41.552Z,5.10
2022-08-26T02:57:09.107Z,6.72
2022-08-26T02:59:35.987Z,4.70
2022-08-26T03:02:03.034Z,5.10
2022-08-26T03:04:30.998Z,9.05
2022-08-26T03:07:00.063Z,5.38
2022-08-26T03:09:27.424Z,5.03
2022-08-26T03:11:55.435Z,4.78
2022-08-26T03:14:23.819Z,4.97
2022-08-26T03:16:53.831Z,5.25
2022-08-26T03:19:23.835Z,5.75
2022-08-26T03:21:51.634Z,5.18
2022-08-26T03:24:19.484Z,5.53
2022-08-26T03:26:52.034Z,5.85
2022-08-26T03:29:38.844Z,5.63
2022-08-26T03:32:06.020Z,6.68
2022-08-26T03:34:32.441Z,5.20
2022-08-26T03:36:58.913Z,5.43
2022-08-26T03:39:25.446Z,5.30
2022-08-26T03:41:52.309Z,5.05
2022-08-26T03:44:19.846Z,5.97
2022-08-26T03:46:46.424Z,6.80
2022-08-26T03:49:13.158Z,5.90
2022-08-26T03:51:42.182Z,6.40
2022-08-26T03:54:08.881Z,5.47
2022-08-26T03:56:36.530Z,6.03
2022-08-26T03:59:03.936Z,5.68
2022-08-26T04:01:31.402Z,5.03
2022-08-26T04:04:00.373Z,5.95
2022-08-26T04:06:44.973Z,5.10
2022-08-26T04:09:19.603Z,5.75
2022-08-26T04:11:50.512Z,5.63
2022-08-26T04:14:23.582Z,5.70
2022-08-26T04:16:51.276Z,6.78
2022-08-26T04:19:19.299Z,5.40
2022-08-26T04:21:47.346Z,5.32
2022-08-26T04:24:16.683Z,5.40
2022-08-26T04:26:44.771Z,5.60
2022-08-26T04:29:15.030Z,5.35
2022-08-26T04:31:41.984Z,5.28
2022-08-26T04:34:08.687Z,5.63
2022-08-26T04:36:37.956Z,7.32
2022-08-26T04:39:05.307Z,4.45
2022-08-26T04:41:32.544Z,4.95
2022-08-26T04:43:58.990Z,5.93
2022-08-26T04:46:25.904Z,4.90
2022-08-26T04:48:53.556Z,4.95
2022-08-26T04:51:27.118Z,5.00
2022-08-26T04:53:56.897Z,6.70
2022-08-26T04:56:25.671Z,6.03
2022-08-26T04:58:52.626Z,9.88
2022-08-26T05:01:20.510Z,30.00
2022-08-26T05:03:48.546Z,33.13
2022-08-26T05:06:15.963Z,65.60
2022-08-26T05:08:45.620Z,48.20
2022-08-26T05:11:12.075Z,38.00
2022-08-26T05:13:38.998Z,38.63
2022-08-26T05:16:08.399Z,41.63
2022-08-26T05:18:39.955Z,52.42
2022-08-26T05:21:07.100Z,61.95
2022-08-26T05:23:35.932Z,76.20
2022-08-26T05:26:06.709Z,73.60
2022-08-26T05:28:34.815Z,71.77
2022-08-26T05:31:01.956Z,54.70
2022-08-26T05:33:29.239Z,23.00
2022-08-26T05:35:55.739Z,11.02
2022-08-26T05:38:23.491Z,10.07
2022-08-26T05:40:52.770Z,8.38
2022-08-26T05:43:20.497Z,6.47
2022-08-26T05:45:50.732Z,6.28
2022-08-26T05:48:24.321Z,6.70
2022-08-26T05:50:53.256Z,6.95
2022-08-26T05:53:21.348Z,7.55
2022-08-26T05:55:50.849Z,8.82
2022-08-26T05:58:21.902Z,7.22
2022-08-26T06:00:59.137Z,5.82
2022-08-26T06:03:26.589Z,6.53
2022-08-26T06:05:53.738Z,10.38
2022-08-26T06:08:21.121Z,7.40
2022-08-26T06:10:53.576Z,7.60
2022-08-26T06:13:23.762Z,12.55
2022-08-26T06:15:51.687Z,10.27
2022-08-26T06:18:22.511Z,12.80
2022-08-26T06:20:57.623Z,7.32
2022-08-26T06:23:45.412Z,8.40
2022-08-26T06:26:13.188Z,7.15
2022-08-26T06:28:39.639Z,8.88
2022-08-26T06:31:10.418Z,7.13
2022-08-26T06:33:37.652Z,7.03
2022-08-26T06:36:06.628Z,8.48
2022-08-26T06:38:33.799Z,8.75
2022-08-26T06:41:03.218Z,6.78
2022-08-26T06:43:29.638Z,9.10
2022-08-26T06:46:05.047Z,9.63
2022-08-26T06:48:31.902Z,10.07
2022-08-26T06:51:14.063Z,8.05
2022-08-26T06:53:42.274Z,8.07
2022-08-26T06:56:11.144Z,8.70
2022-08-26T06:58:39.073Z,8.57
2022-08-26T07:01:20.931Z,7.88
2022-08-26T07:03:49.540Z,8.10
2022-08-26T07:06:19.349Z,7.93
2022-08-26T07:08:47.181Z,8.27
2022-08-26T07:11:14.552Z,7.85
2022-08-26T07:13:41.039Z,8.52
2022-08-26T07:16:13.832Z,14.07
2022-08-26T07:18:45.032Z,8.48
2022-08-26T07:21:14.618Z,9.70
2022-08-26T07:23:41.506Z,8.93
2022-08-26T07:26:11.978Z,8.35
2022-08-26T07:28:38.595Z,10.18
2022-08-26T07:31:07.387Z,9.70
2022-08-26T07:33:39.185Z,8.73
2022-08-26T07:36:08.182Z,9.93
2022-08-26T07:38:35.838Z,9.30
2022-08-26T07:41:04.271Z,7.97
2022-08-26T07:43:30.969Z,8.48
2022-08-26T07:45:57.728Z,9.05
2022-08-26T07:48:24.474Z,8.40
2022-08-26T07:50:53.594Z,9.98
2022-08-26T07:53:21.678Z,9.10
2022-08-26T07:55:50.957Z,10.02
2022-08-26T07:58:19.773Z,8.77
2022-08-26T08:00:47.494Z,8.00
2022-08-26T08:03:15.027Z,9.32
2022-08-26T08:05:42.118Z,7.68
2022-08-26T08:08:26.737Z,8.57
2022-08-26T08:10:55.916Z,9.32
2022-08-26T08:13:23.039Z,9.63
2022-08-26T08:15:51.054Z,9.38
2022-08-26T08:18:20.386Z,8.82
2022-08-26T08:21:04.846Z,8.88
2022-08-26T08:23:32.733Z,8.07
2022-08-26T08:26:10.309Z,8.82
2022-08-26T08:28:38.110Z,8.05
2022-08-26T08:31:05.776Z,9.82
2022-08-26T08:33:33.707Z,8.50
2022-08-26T08:36:00.294Z,12.07
2022-08-26T08:38:28.040Z,11.05
2022-08-26T08:40:54.464Z,9.52
2022-08-26T08:43:30.151Z,17.83
2022-08-26T08:46:00.068Z,8.82
2022-08-26T08:48:31.999Z,9.38
2022-08-26T08:51:31.380Z,8.38
2022-08-26T08:54:00.024Z,20.00
2022-08-26T08:56:38.036Z,9.73
2022-08-26T08:59:20.882Z,11.02
2022-08-26T09:01:54.158Z,8.52
2022-08-26T09:04:29.768Z,8.82
2022-08-26T09:06:59.555Z,9.23
2022-08-26T09:09:57.206Z,9.35
2022-08-26T09:12:29.340Z,10.07
2022-08-26T09:15:16.348Z,12.30
2022-08-26T09:18:11.341Z,9.38
2022-08-26T09:20:48.716Z,9.40
2022-08-26T09:23:16.157Z,9.23
2022-08-26T09:25:51.187Z,8.25
2022-08-26T09:28:21.252Z,9.10
2022-08-26T09:31:01.634Z,9.65
2022-08-26T09:33:32.823Z,9.20
2022-08-26T09:36:39.176Z,8.63
2022-08-26T09:39:38.920Z,8.45
2022-08-26T09:42:35.237Z,9.20
2022-08-26T09:45:08.267Z,8.95
2022-08-26T09:47:48.236Z,8.77
2022-08-26T09:50:31.801Z,8.35
2022-08-26T09:53:14.071Z,10.15
2022-08-26T09:55:44.980Z,9.43
2022-08-26T09:58:33.344Z,9.15
2022-08-26T10:01:03.091Z,9.20
2022-08-26T10:03:33.877Z,12.30
2022-08-26T10:06:01.923Z,18.50
2022-08-26T10:08:42.303Z,17.40
2022-08-26T10:11:17.003Z,16.85
2022-08-26T10:13:49.129Z,18.45
2022-08-26T10:17:02.882Z,18.92
2022-08-26T10:19:56.666Z,18.20
2022-08-26T10:22:32.824Z,17.88
2022-08-26T10:25:03.261Z,20.95
2022-08-26T10:27:34.099Z,17.50
2022-08-26T10:30:10.229Z,19.10
2022-08-26T10:32:47.854Z,18.45
2022-08-26T10:35:17.171Z,19.20
2022-08-26T10:37:48.860Z,22.48
2022-08-26T10:40:41.843Z,18.30
2022-08-26T10:43:15.950Z,22.20
2022-08-26T10:46:03.990Z,19.58
2022-08-26T10:48:40.858Z,20.17
2022-08-26T10:51:08.679Z,18.63
2022-08-26T10:53:57.526Z,18.45
2022-08-26T10:56:37.766Z,17.73
2022-08-26T10:59:33.398Z,20.50
2022-08-26T11:02:16.479Z,19.08
2022-08-26T11:04:58.312Z,17.25
2022-08-26T11:07:42.828Z,17.75
2022-08-26T11:10:18.803Z,16.95
2022-08-26T11:12:49.166Z,16.08
2022-08-26T11:15:28.150Z,15.05
2022-08-26T11:18:00.116Z,22.50
2022-08-26T11:20:47.134Z,15.98
2022-08-26T11:23:14.233Z,14.23
2022-08-26T11:25:55.948Z,14.02
2022-08-26T11:28:39.807Z,15.73
2022-08-26T11:31:32.152Z,14.00
2022-08-26T11:34:08.737Z,15.65
2022-08-26T11:36:42.644Z,17.30
2022-08-26T11:39:36.580Z,16.10
2022-08-26T11:42:20.123Z,17.85
2022-08-26T11:44:49.656Z,18.10
2022-08-26T11:47:24.851Z,16.88
2022-08-26T11:50:09.904Z,18.40
2022-08-26T11:52:36.828Z,18.70
2022-08-26T11:55:14.242Z,19.13
2022-08-26T11:57:45.348Z,20.23
2022-08-26T12:00:22.333Z,18.38
2022-08-26T12:02:50.611Z,18.55
2022-08-26T12:05:31.438Z,20.80
2022-08-26T12:08:05.213Z,21.15
2022-08-26T12:10:33.918Z,24.35
2022-08-26T12:13:02.283Z,20.52
2022-08-26T12:15:31.332Z,20.95
2022-08-26T12:17:59.204Z,21.88
2022-08-26T12:20:46.356Z,21.13
2022-08-26T12:23:36.696Z,21.40
2022-08-26T12:26:28.861Z,18.33
2022-08-26T12:28:59.403Z,17.58
2022-08-26T12:31:32.676Z,18.77
2022-08-26T12:34:02.065Z,16.92
2022-08-26T12:36:31.542Z,15.10
2022-08-26T12:39:06.888Z,16.35
2022-08-26T12:41:46.804Z,16.23
2022-08-26T12:44:32.987Z,13.57
2022-08-26T12:47:42.187Z,13.73
2022-08-26T12:50:10.049Z,12.13
2022-08-26T12:53:01.425Z,13.88
2022-08-26T12:55:48.109Z,15.77
2022-08-26T12:58:36.586Z,15.77
2022-08-26T13:01:04.865Z,13.52
2022-08-26T13:03:34.510Z,12.77
2022-08-26T13:06:15.981Z,12.10
2022-08-26T13:09:13.108Z,18.83
2022-08-26T13:11:39.531Z,19.15
2022-08-26T13:14:08.673Z,16.17
2022-08-26T13:16:37.103Z,15.98
2022-08-26T13:19:10.243Z,16.20
2022-08-26T13:21:49.664Z,16.00
2022-08-26T13:24:20.776Z,15.63
2022-08-26T13:26:51.967Z,17.10
2022-08-26T13:29:19.236Z,18.73
2022-08-26T13:31:46.594Z,21.77
2022-08-26T13:34:18.122Z,23.92
2022-08-26T13:36:45.939Z,20.35
2022-08-26T13:39:12.835Z,23.23
2022-08-26T13:41:39.793Z,20.25
2022-08-26T13:44:06.801Z,20.45
2022-08-26T13:46:33.404Z,19.77
2022-08-26T13:48:59.935Z,20.73
2022-08-26T13:51:27.190Z,20.83
2022-08-26T13:53:53.956Z,18.85
2022-08-26T13:56:21.345Z,21.13
2022-08-26T13:58:47.765Z,19.35
2022-08-26T14:01:17.161Z,22.35
2022-08-26T14:03:44.420Z,16.50
2022-08-26T14:06:11.015Z,16.80
2022-08-26T14:08:40.282Z,17.88
2022-08-26T14:11:07.728Z,17.10
2022-08-26T14:13:34.768Z,21.70
2022-08-26T14:16:04.720Z,17.67
2022-08-26T14:18:38.463Z,16.90
2022-08-26T14:21:09.574Z,17.95
2022-08-26T14:23:35.977Z,17.27
2022-08-26T14:26:07.867Z,18.30
2022-08-26T14:28:35.217Z,17.43
2022-08-26T14:31:02.849Z,17.17
2022-08-26T14:33:32.627Z,18.33
2022-08-26T14:36:20.151Z,18.10
2022-08-26T14:38:46.869Z,17.45
2022-08-26T14:41:16.957Z,18.50
2022-08-26T14:44:06.366Z,18.38
2022-08-26T14:46:44.756Z,18.02
2022-08-26T14:49:12.325Z,21.83
2022-08-26T14:51:40.807Z,18.67
2022-08-26T14:54:12.057Z,19.20
2022-08-26T14:56:43.607Z,18.15
2022-08-26T14:59:10.970Z,20.10
2022-08-26T15:01:37.712Z,20.33
2022-08-26T15:04:04.794Z,20.30
2022-08-26T15:06:31.826Z,21.42
2022-08-26T15:08:58.945Z,19.38
2022-08-26T15:11:26.770Z,20.00
2022-08-26T15:13:53.616Z,20.95
2022-08-26T15:16:20.664Z,21.83
2022-08-26T15:18:47.162Z,19.77
2022-08-26T15:21:13.734Z,19.73
2022-08-26T15:23:40.361Z,19.75
2022-08-26T15:26:11.340Z,17.88
2022-08-26T15:28:38.467Z,17.25
2022-08-26T15:31:06.526Z,17.50
2022-08-26T15:33:34.630Z,17.30
2022-08-26T15:36:05.025Z,18.92
2022-08-26T15:38:33.684Z,18.40
2022-08-26T15:41:03.204Z,15.80
2022-08-26T15:43:30.385Z,16.98
2022-08-26T15:45:57.685Z,17.38
2022-08-26T15:48:25.236Z,14.23
2022-08-26T15:50:54.872Z,14.23
2022-08-26T15:53:21.923Z,17.52
2022-08-26T15:55:49.307Z,14.70
2022-08-26T15:58:16.798Z,13.90
2022-08-26T16:00:43.965Z,14.93
2022-08-26T16:03:10.580Z,14.55
2022-08-26T16:05:39.131Z,13.85
2022-08-26T16:08:07.463Z,14.73
2022-08-26T16:10:36.518Z,13.93
2022-08-26T16:13:04.333Z,14.73
2022-08-26T16:15:34.631Z,17.23
2022-08-26T16:18:02.212Z,19.20
2022-08-26T16:20:29.653Z,18.05
2022-08-26T16:22:56.280Z,16.88
2022-08-26T16:25:22.827Z,15.90
2022-08-26T16:27:49.280Z,19.27
2022-08-26T16:30:16.443Z,20.17
2022-08-26T16:32:42.899Z,23.45
2022-08-26T16:35:09.492Z,22.75
2022-08-26T16:37:37.764Z,23.38
2022-08-26T16:40:07.089Z,22.27
2022-08-26T16:42:33.616Z,23.50
2022-08-26T16:45:00.150Z,24.75
2022-08-26T16:47:27.000Z,25.95
2022-08-26T16:49:53.479Z,23.08
2022-08-26T16:52:20.193Z,26.42
2022-08-26T16:54:47.556Z,25.90
2022-08-26T16:57:14.152Z,26.88
2022-08-26T16:59:41.425Z,24.35
2022-08-26T17:02:07.965Z,24.25
2022-08-26T17:04:34.463Z,25.23
2022-08-26T17:07:00.961Z,24.75
2022-08-26T17:09:27.417Z,24.38
2022-08-26T17:11:54.281Z,23.27
2022-08-26T17:14:21.301Z,22.27
2022-08-26T17:16:51.050Z,21.23
2022-08-26T17:19:19.212Z,22.02
2022-08-26T17:21:46.636Z,19.40
2022-08-26T17:24:13.957Z,20.35
2022-08-26T17:26:44.104Z,22.45
2022-08-26T17:29:15.031Z,22.15
2022-08-26T17:31:41.513Z,23.63
2022-08-26T17:34:10.085Z,19.63
2022-08-26T17:36:36.609Z,22.05
2022-08-26T17:39:03.559Z,22.27
2022-08-26T17:41:30.154Z,18.75
2022-08-26T17:43:57.086Z,20.92
2022-08-26T17:46:24.489Z,21.73
2022-08-26T17:48:51.264Z,20.85
2022-08-26T17:51:19.421Z,21.35
2022-08-26T17:53:50.149Z,19.90
2022-08-26T17:56:19.366Z,20.30
2022-08-26T17:58:50.932Z,21.98
2022-08-26T18:01:18.463Z,19.08
2022-08-26T18:03:45.005Z,21.20
2022-08-26T18:06:13.288Z,24.17
2022-08-26T18:08:40.774Z,22.05
2022-08-26T18:11:12.716Z,26.60
2022-08-26T18:13:45.771Z,22.20
2022-08-26T18:16:15.932Z,22.02
2022-08-26T18:18:43.020Z,21.88
2022-08-26T18:21:16.285Z,23.38
2022-08-26T18:23:43.935Z,23.30
2022-08-26T18:26:16.715Z,20.67
2022-08-26T18:28:43.303Z,20.33
2022-08-26T18:31:12.489Z,20.90
2022-08-26T18:33:39.203Z,21.15
2022-08-26T18:36:05.977Z,20.25
2022-08-26T18:38:32.621Z,20.92
2022-08-26T18:40:59.303Z,18.42
2022-08-26T18:43:25.823Z,17.27
2022-08-26T18:46:01.658Z,18.75
2022-08-26T18:48:28.204Z,18.42
2022-08-26T18:50:55.291Z,18.13
2022-08-26T18:53:21.915Z,19.27
2022-08-26T18:55:48.330Z,17.73
2022-08-26T18:58:16.679Z,18.33
2022-08-26T19:00:43.129Z,18.52
2022-08-26T19:03:18.871Z,17.98
2022-08-26T19:05:46.059Z,18.27
2022-08-26T19:08:12.462Z,18.25
2022-08-26T19:10:39.363Z,17.70
2022-08-26T19:13:07.325Z,16.73
2022-08-26T19:15:40.524Z,16.67
2022-08-26T19:18:08.720Z,16.13
2022-08-26T19:20:46.032Z,17.20
2022-08-26T19:23:30.919Z,17.98
2022-08-26T19:26:01.853Z,16.73
2022-08-26T19:28:28.530Z,16.08
2022-08-26T19:30:55.077Z,16.15
2022-08-26T19:33:21.928Z,16.02
2022-08-26T19:35:48.388Z,15.10
2022-08-26T19:38:15.445Z,14.73
2022-08-26T19:40:42.479Z,14.40
2022-08-26T19:43:10.134Z,15.25
2022-08-26T19:45:40.102Z,14.55
2022-08-26T19:48:06.688Z,16.38
2022-08-26T19:50:34.510Z,14.57
2022-08-26T19:53:01.604Z,13.95
2022-08-26T19:55:28.123Z,16.05
2022-08-26T19:57:54.716Z,14.70
2022-08-26T20:00:25.064Z,15.63
2022-08-26T20:02:52.895Z,14.02
2022-08-26T20:05:22.312Z,13.93
2022-08-26T20:07:49.601Z,15.02
2022-08-26T20:10:18.566Z,13.43
2022-08-26T20:12:45.473Z,14.75
2022-08-26T20:15:13.155Z,14.40
2022-08-26T20:17:40.804Z,13.63
2022-08-26T20:20:33.226Z,13.20
2022-08-26T20:23:03.895Z,13.55
2022-08-26T20:25:32.450Z,14.02
2022-08-26T20:27:59.589Z,14.13
2022-08-26T20:31:18.053Z,13.77
2022-08-26T20:33:46.340Z,12.35
2022-08-26T20:36:18.171Z,13.80
2022-08-26T20:38:46.058Z,13.00
2022-08-26T20:41:13.381Z,13.98
2022-08-26T20:43:39.968Z,13.13
2022-08-26T20:46:17.974Z,12.18
2022-08-26T20:48:47.494Z,14.13
2022-08-26T20:51:14.531Z,10.85
2022-08-26T20:53:41.742Z,11.50
2022-08-26T20:56:10.332Z,10.05
2022-08-26T20:58:37.542Z,11.52
2022-08-26T21:01:08.268Z,11.07
2022-08-26T21:03:36.463Z,10.23
2022-08-26T21:06:06.682Z,11.55
2022-08-26T21:08:33.984Z,12.10
2022-08-26T21:11:02.048Z,11.45
2022-08-26T21:13:42.833Z,11.18
2022-08-26T21:16:19.630Z,15.25
2022-08-26T21:18:46.990Z,11.55
2022-08-26T21:21:14.004Z,11.20
2022-08-26T21:23:40.449Z,11.98
2022-08-26T21:26:11.198Z,10.70
2022-08-26T21:28:39.651Z,10.88
2022-08-26T21:31:08.562Z,10.73
2022-08-26T21:33:35.974Z,11.98
2022-08-26T21:36:03.734Z,11.38
2022-08-26T21:38:31.418Z,10.73
2022-08-26T21:41:12.859Z,11.73
2022-08-26T21:43:42.074Z,11.35
2022-08-26T21:46:13.894Z,11.00
2022-08-26T21:49:00.524Z,10.57
2022-08-26T21:51:33.658Z,13.18
2022-08-26T21:54:01.462Z,10.70
2022-08-26T21:56:31.464Z,11.98
2022-08-26T21:58:59.356Z,11.45
2022-08-26T22:01:31.788Z,10.55
2022-08-26T22:03:58.471Z,11.20
2022-08-26T22:06:27.600Z,12.38
2022-08-26T22:08:55.745Z,10.45
2022-08-26T22:11:22.577Z,9.07
2022-08-26T22:13:49.851Z,13.60
2022-08-26T22:16:16.954Z,11.85
2022-08-26T22:18:44.820Z,11.85
2022-08-26T22:21:14.848Z,11.57
2022-08-26T22:23:41.326Z,11.07
2022-08-26T22:26:10.486Z,9.48
2022-08-26T22:28:37.463Z,11.23
2022-08-26T22:31:04.173Z,9.43
2022-08-26T22:33:30.587Z,10.90
2022-08-26T22:35:57.024Z,10.60
2022-08-26T22:38:23.768Z,9.73
2022-08-26T22:40:55.907Z,11.23
2022-08-26T22:43:24.276Z,9.85
2022-08-26T22:45:52.741Z,10.45
2022-08-26T22:48:23.653Z,11.38
2022-08-26T22:50:51.027Z,10.30
2022-08-26T22:53:21.551Z,8.88
2022-08-26T22:55:49.296Z,11.32
2022-08-26T22:58:20.454Z,10.50
2022-08-26T23:00:53.152Z,9.50
2022-08-26T23:03:22.340Z,10.40
2022-08-26T23:05:49.838Z,12.23
2022-08-26T23:08:17.815Z,9.50
2022-08-26T23:10:46.319Z,9.20
2022-08-26T23:13:13.681Z,14.63
2022-08-26T23:15:41.989Z,9.35
2022-08-26T23:18:09.802Z,8.27
2022-08-26T23:20:37.063Z,8.90
2022-08-26T23:23:04.215Z,10.23
2022-08-26T23:25:32.671Z,8.63
2022-08-26T23:28:00.520Z,9.90
2022-08-26T23:30:29.565Z,9.88
2022-08-26T23:32:56.376Z,8.18
2022-08-26T23:35:24.051Z,10.32
2022-08-26T23:37:52.881Z,10.88
2022-08-26T23:40:38.553Z,9.20
2022-08-26T23:43:07.921Z,10.23
2022-08-26T23:45:35.367Z,9.38
2022-08-26T23:48:02.827Z,11.00
2022-08-26T23:50:49.811Z,9.27
2022-08-26T23:53:20.077Z,8.05
2022-08-26T23:55:48.482Z,9.55
2022-08-26T23:58:16.383Z,9.05
